createdAt,value
2018-12-26T00:00:03.918Z,99682.49
2018-12-26T00:02:11.227Z,99682.17
2018-12-26T00:04:18.468Z,99687.25
2018-12-26T00:06:25.756Z,99689.77
2018-12-26T00:08:32.688Z,99690.70
2018-12-26T00:10:39.911Z,99686.50
2018-12-26T00:12:48.105Z,99694.00
2018-12-26T00:14:55.297Z,99693.28
2018-12-26T00:17:02.545Z,99693.58
2018-12-26T00:19:09.897Z,99701.20
2018-12-26T00:21:17.073Z,99693.75
2018-12-26T00:23:24.272Z,99699.14
2018-12-26T00:25:52.647Z,99696.84
2018-12-26T00:27:59.904Z,99694.97
2018-12-26T00:30:20.538Z,99701.85
2018-12-26T00:32:29.659Z,99703.20
2018-12-26T00:34:38.358Z,99696.43
2018-12-26T00:36:47.515Z,99702.06
2018-12-26T00:38:54.684Z,99700.95
2018-12-26T00:41:03.148Z,99699.70
2018-12-26T00:43:12.272Z,99699.17
2018-12-26T00:45:20.084Z,99703.34
2018-12-26T00:47:27.900Z,99703.34
2018-12-26T00:49:35.001Z,99698.86
2018-12-26T00:51:44.588Z,99705.50
2018-12-26T00:53:51.821Z,99701.25
2018-12-26T00:58:28.367Z,99708.73
2018-12-26T01:00:35.515Z,99704.70
2018-12-26T01:02:43.507Z,99709.45
2018-12-26T01:04:51.786Z,99705.32
2018-12-26T01:06:59.042Z,99700.22
2018-12-26T01:09:08.024Z,99704.91
2018-12-26T01:11:15.721Z,99694.89
2018-12-26T01:13:22.831Z,99698.83
2018-12-26T01:15:31.285Z,99702.51
2018-12-26T01:17:40.293Z,99702.82
2018-12-26T01:19:47.449Z,99708.94
2018-12-26T01:21:59.458Z,99704.98
2018-12-26T01:24:17.533Z,99710.95
2018-12-26T01:26:25.376Z,99715.67
2018-12-26T01:28:34.494Z,99715.48
2018-12-26T01:30:41.888Z,99713.59
2018-12-26T01:32:49.003Z,99729.88
2018-12-26T01:34:56.873Z,99726.10
2018-12-26T01:37:05.516Z,99733.61
2018-12-26T01:39:15.403Z,99723.08
2018-12-26T01:41:30.674Z,99739.06
2018-12-26T01:43:41.526Z,99739.58
2018-12-26T01:45:54.676Z,99739.58
2018-12-26T01:48:18.439Z,99743.52
2018-12-26T01:50:27.734Z,99744.38
2018-12-26T01:52:39.338Z,99743.09
2018-12-26T01:57:15.394Z,99749.06
2018-12-26T01:59:24.424Z,99747.61
2018-12-26T02:01:37.254Z,99749.59
2018-12-26T02:03:50.412Z,99750.77
2018-12-26T02:08:17.293Z,99747.02
2018-12-26T02:10:29.071Z,99745.08
2018-12-26T02:12:37.885Z,99743.52
2018-12-26T02:14:48.841Z,99750.26
2018-12-26T02:16:57.562Z,99749.95
2018-12-26T02:19:05.277Z,99749.00
2018-12-26T02:21:13.401Z,99753.16
2018-12-26T02:23:22.525Z,99753.02
2018-12-26T02:25:29.862Z,99759.63
2018-12-26T02:27:39.427Z,99764.48
2018-12-26T02:29:49.537Z,99766.15
2018-12-26T02:32:00.201Z,99752.44
2018-12-26T02:34:07.482Z,99753.03
2018-12-26T02:36:15.265Z,99755.74
2018-12-26T02:38:24.865Z,99758.80
2018-12-26T02:40:34.857Z,99756.50
2018-12-26T02:42:42.059Z,99760.62
2018-12-26T02:44:51.803Z,99760.56
2018-12-26T02:46:59.867Z,99751.02
2018-12-26T02:49:08.725Z,99767.81
2018-12-26T02:51:15.918Z,99762.39
2018-12-26T02:53:23.198Z,99770.38
2018-12-26T02:55:30.544Z,99775.80
2018-12-26T02:57:37.614Z,99776.58
2018-12-26T02:59:46.419Z,99775.16
2018-12-26T03:01:55.564Z,99776.06
2018-12-26T03:04:04.086Z,99773.23
2018-12-26T03:06:11.588Z,99778.03
2018-12-26T03:08:18.883Z,99784.44
2018-12-26T03:10:27.090Z,99784.70
2018-12-26T03:12:34.244Z,99790.53
2018-12-26T03:14:41.570Z,99793.44
2018-12-26T03:16:49.640Z,99789.61
2018-12-26T03:18:56.992Z,99788.44
2018-12-26T03:21:14.713Z,99795.33
2018-12-26T03:23:21.922Z,99797.26
2018-12-26T03:25:29.485Z,99791.20
2018-12-26T03:27:40.616Z,99797.51
2018-12-26T03:29:49.611Z,99794.23
2018-12-26T03:31:57.293Z,99782.56
2018-12-26T03:34:10.903Z,99790.90
2018-12-26T03:36:18.968Z,99790.69
2018-12-26T03:38:29.705Z,99792.03
2018-12-26T03:40:37.386Z,99800.33
2018-12-26T03:42:45.264Z,99796.77
2018-12-26T03:45:00.900Z,99801.03
2018-12-26T03:47:09.295Z,99792.59
2018-12-26T03:49:17.344Z,99795.16
2018-12-26T03:51:25.446Z,99795.27
2018-12-26T03:53:33.471Z,99788.47
2018-12-26T03:55:41.637Z,99794.47
2018-12-26T03:57:49.153Z,99793.11
2018-12-26T03:59:57.753Z,99787.32
2018-12-26T04:02:05.656Z,99786.69
2018-12-26T04:04:13.624Z,99791.88
2018-12-26T04:06:20.636Z,99784.20
2018-12-26T04:08:29.114Z,99787.08
2018-12-26T04:10:37.403Z,99794.38
2018-12-26T04:12:44.682Z,99794.58
2018-12-26T04:14:52.033Z,99795.50
2018-12-26T04:17:00.131Z,99801.70
2018-12-26T04:19:08.365Z,99808.23
2018-12-26T04:21:15.904Z,99807.91
2018-12-26T04:23:24.104Z,99815.44
2018-12-26T04:25:31.478Z,99818.23
2018-12-26T04:27:40.107Z,99812.41
2018-12-26T04:29:48.933Z,99814.45
2018-12-26T04:31:57.631Z,99809.82
2018-12-26T04:34:06.378Z,99820.27
2018-12-26T04:36:16.547Z,99821.02
2018-12-26T04:38:26.552Z,99816.30
2018-12-26T04:40:34.630Z,99817.88
2018-12-26T04:42:43.053Z,99815.45
2018-12-26T04:44:52.547Z,99814.48
2018-12-26T04:47:01.997Z,99821.77
2018-12-26T04:49:10.105Z,99821.47
2018-12-26T04:51:17.496Z,99818.87
2018-12-26T04:53:24.875Z,99816.41
2018-12-26T04:55:32.128Z,99825.69
2018-12-26T04:57:39.594Z,99830.84
2018-12-26T04:59:47.433Z,99831.05
2018-12-26T05:01:54.655Z,99836.46
2018-12-26T05:04:03.177Z,99829.58
2018-12-26T05:06:11.264Z,99825.02
2018-12-26T05:08:19.272Z,99828.88
2018-12-26T05:10:26.560Z,99829.41
2018-12-26T05:12:34.511Z,99831.47
2018-12-26T05:14:42.539Z,99831.58
2018-12-26T05:16:50.592Z,99833.03
2018-12-26T05:18:58.250Z,99833.05
2018-12-26T05:21:05.441Z,99835.68
2018-12-26T05:23:13.359Z,99839.36
2018-12-26T05:25:20.621Z,99841.92
2018-12-26T05:27:34.208Z,99850.77
2018-12-26T05:29:37.509Z,99847.86
2018-12-26T05:31:44.874Z,99851.59
2018-12-26T05:33:52.280Z,99853.06
2018-12-26T05:36:00.921Z,99855.22
2018-12-26T05:38:08.070Z,99852.31
2018-12-26T05:40:16.224Z,99844.19
2018-12-26T05:42:24.137Z,99854.39
2018-12-26T05:44:32.516Z,99853.29
2018-12-26T05:46:39.738Z,99847.45
2018-12-26T05:48:47.128Z,99846.33
2018-12-26T05:50:55.191Z,99853.28
2018-12-26T05:53:02.592Z,99847.05
2018-12-26T05:55:09.767Z,99851.44
2018-12-26T05:57:17.668Z,99854.99
2018-12-26T05:59:24.649Z,99857.83
2018-12-26T06:01:31.865Z,99848.92
2018-12-26T06:03:39.071Z,99861.39
2018-12-26T06:05:46.244Z,99865.43
2018-12-26T06:07:53.138Z,99868.02
2018-12-26T06:09:59.820Z,99872.45
2018-12-26T06:12:06.952Z,99876.61
2018-12-26T06:14:14.235Z,99872.56
2018-12-26T06:16:24.251Z,99878.23
2018-12-26T06:18:31.389Z,99884.28
2018-12-26T06:20:39.249Z,99876.88
2018-12-26T06:22:45.994Z,99878.68
2018-12-26T06:24:53.917Z,99882.30
2018-12-26T06:27:00.620Z,99854.50
2018-12-26T06:29:07.371Z,99892.78
2018-12-26T06:31:14.932Z,99890.27
2018-12-26T06:33:21.947Z,99887.56
2018-12-26T06:35:29.012Z,99884.70
2018-12-26T06:37:36.232Z,99890.20
2018-12-26T06:39:43.868Z,99886.02
2018-12-26T06:41:50.632Z,99889.80
2018-12-26T06:43:58.056Z,99890.39
2018-12-26T06:46:04.813Z,99889.23
2018-12-26T06:48:12.460Z,99892.27
2018-12-26T06:50:21.030Z,99888.14
2018-12-26T06:52:29.129Z,99887.17
2018-12-26T06:54:36.599Z,99889.36
2018-12-26T06:56:43.672Z,99895.32
2018-12-26T06:58:50.909Z,99885.63
2018-12-26T07:00:59.283Z,99889.52
2018-12-26T07:03:08.792Z,99890.64
2018-12-26T07:05:16.186Z,99882.81
2018-12-26T07:07:24.380Z,99891.25
2018-12-26T07:09:31.859Z,99889.15
2018-12-26T07:11:39.905Z,99886.17
2018-12-26T07:13:48.674Z,99888.42
2018-12-26T07:15:56.499Z,99891.48
2018-12-26T07:18:04.321Z,99887.84
2018-12-26T07:20:11.652Z,99890.23
2018-12-26T07:22:18.882Z,99892.41
2018-12-26T07:24:26.197Z,99885.10
2018-12-26T07:26:34.136Z,99895.72
2018-12-26T07:28:41.675Z,99891.19
2018-12-26T07:30:49.203Z,99892.58
2018-12-26T07:32:56.453Z,99895.02
2018-12-26T07:35:03.767Z,99896.52
2018-12-26T07:37:11.079Z,99908.39
2018-12-26T07:39:18.119Z,99915.91
2018-12-26T07:41:25.324Z,99909.14
2018-12-26T07:43:34.058Z,99921.56
2018-12-26T07:45:41.175Z,99931.55
2018-12-26T07:47:48.452Z,99929.84
2018-12-26T07:49:55.599Z,99931.63
2018-12-26T07:52:03.503Z,99943.05
2018-12-26T07:54:11.103Z,99946.93
2018-12-26T07:56:18.975Z,99942.53
2018-12-26T07:58:26.237Z,99949.55
2018-12-26T08:00:33.441Z,99952.92
2018-12-26T08:02:40.862Z,99954.47
2018-12-26T08:04:48.283Z,99952.55
2018-12-26T08:06:55.219Z,99964.64
2018-12-26T08:09:02.640Z,99970.86
2018-12-26T08:11:10.288Z,99962.95
2018-12-26T08:13:17.457Z,99959.66
2018-12-26T08:15:24.543Z,99960.38
2018-12-26T08:17:32.626Z,99958.55
2018-12-26T08:19:39.914Z,99959.09
2018-12-26T08:21:46.979Z,99966.03
2018-12-26T08:23:54.203Z,99961.64
2018-12-26T08:26:01.438Z,99969.73
2018-12-26T08:28:08.593Z,99963.40
2018-12-26T08:30:15.922Z,99968.94
2018-12-26T08:32:23.988Z,99963.64
2018-12-26T08:34:31.539Z,99964.23
2018-12-26T08:36:39.594Z,99962.05
2018-12-26T08:38:47.506Z,99961.29
2018-12-26T08:40:54.627Z,99965.78
2018-12-26T08:43:01.979Z,99973.89
2018-12-26T08:45:09.518Z,99976.88
2018-12-26T08:47:18.133Z,99980.05
2018-12-26T08:49:25.143Z,99979.31
2018-12-26T08:51:32.935Z,99985.33
2018-12-26T08:53:40.165Z,99990.73
2018-12-26T08:55:47.413Z,99986.59
2018-12-26T08:57:54.444Z,99988.72
2018-12-26T09:00:01.520Z,99999.21
2018-12-26T09:02:08.996Z,100003.81
2018-12-26T09:04:16.186Z,100007.88
2018-12-26T09:06:23.205Z,100012.34
2018-12-26T09:08:30.495Z,100007.64
2018-12-26T09:10:37.765Z,100013.46
2018-12-26T09:12:45.068Z,100009.27
2018-12-26T09:14:52.150Z,100006.54
2018-12-26T09:16:59.873Z,100003.36
2018-12-26T09:19:06.907Z,100005.88
2018-12-26T09:21:14.146Z,100009.06
2018-12-26T09:23:21.446Z,100008.70
2018-12-26T09:25:29.247Z,100006.91
2018-12-26T09:27:37.694Z,99996.21
2018-12-26T09:29:45.001Z,99987.84
2018-12-26T09:31:52.024Z,99988.22
2018-12-26T09:33:59.290Z,99983.59
2018-12-26T09:36:06.829Z,99986.02
2018-12-26T09:38:14.156Z,99985.06
2018-12-26T09:40:21.394Z,99982.88
2018-12-26T09:42:28.866Z,99979.77
2018-12-26T09:44:35.908Z,99982.43
2018-12-26T09:46:43.168Z,99977.33
2018-12-26T09:48:50.438Z,99977.02
2018-12-26T09:50:57.451Z,99981.19
2018-12-26T09:53:04.507Z,99974.30
2018-12-26T09:55:11.836Z,99970.41
2018-12-26T09:57:18.811Z,99964.33
2018-12-26T09:59:26.237Z,99964.52
2018-12-26T10:01:33.483Z,99963.47
2018-12-26T10:03:40.537Z,99962.37
2018-12-26T10:05:47.919Z,99960.02
2018-12-26T10:07:54.952Z,99958.41
2018-12-26T10:10:02.096Z,99964.66
2018-12-26T10:12:09.229Z,99970.67
2018-12-26T10:14:16.494Z,99977.91
2018-12-26T10:16:23.943Z,99975.13
2018-12-26T10:18:31.353Z,99983.97
2018-12-26T10:20:39.076Z,99990.36
2018-12-26T10:22:46.434Z,99984.11
2018-12-26T10:24:53.470Z,99981.77
2018-12-26T10:27:01.178Z,99978.15
2018-12-26T10:29:08.165Z,99978.12
2018-12-26T10:31:15.348Z,99978.95
2018-12-26T10:33:22.749Z,99983.03
2018-12-26T10:35:29.818Z,99986.08
2018-12-26T10:37:37.158Z,99984.94
2018-12-26T10:39:44.401Z,99987.17
2018-12-26T10:41:51.645Z,99979.13
2018-12-26T10:43:59.051Z,99979.20
2018-12-26T10:46:06.154Z,99944.57
2018-12-26T10:48:13.263Z,99988.88
2018-12-26T10:50:20.581Z,99988.37
2018-12-26T10:52:27.842Z,99988.22
2018-12-26T10:54:35.322Z,99991.23
2018-12-26T10:56:42.730Z,99997.32
2018-12-26T10:58:49.765Z,99994.94
2018-12-26T11:00:56.949Z,99995.41
2018-12-26T11:03:04.781Z,99997.87
2018-12-26T11:05:12.126Z,99997.19
2018-12-26T11:07:19.405Z,99995.63
2018-12-26T11:09:26.876Z,99998.05
2018-12-26T11:11:34.200Z,100003.95
2018-12-26T11:13:41.577Z,99998.76
2018-12-26T11:15:48.601Z,99991.32
2018-12-26T11:17:55.777Z,100004.11
2018-12-26T11:20:04.495Z,99996.22
2018-12-26T11:22:11.712Z,100003.17
2018-12-26T11:24:18.811Z,100003.72
2018-12-26T11:26:26.645Z,100005.60
2018-12-26T11:28:33.633Z,100006.63
2018-12-26T11:30:41.019Z,100006.95
2018-12-26T11:32:48.341Z,100011.19
2018-12-26T11:34:56.477Z,100003.86
2018-12-26T11:37:03.696Z,100005.22
2018-12-26T11:39:10.919Z,100006.57
2018-12-26T11:41:18.775Z,100016.36
2018-12-26T11:43:26.010Z,100015.86
2018-12-26T11:45:33.357Z,100010.39
2018-12-26T11:47:40.584Z,100011.14
2018-12-26T11:49:47.798Z,100007.16
2018-12-26T11:51:55.042Z,100012.26
2018-12-26T11:54:02.298Z,100017.27
2018-12-26T11:56:09.397Z,100022.36
2018-12-26T11:58:16.376Z,100003.14
2018-12-26T12:00:23.551Z,100021.09
2018-12-26T12:02:30.980Z,100021.30
2018-12-26T12:04:38.425Z,100021.95
2018-12-26T12:06:45.387Z,100026.66
2018-12-26T12:08:52.713Z,100027.91
2018-12-26T12:11:00.222Z,100029.59
2018-12-26T12:13:07.486Z,100028.70
2018-12-26T12:15:14.810Z,100030.03
2018-12-26T12:17:21.841Z,100031.95
2018-12-26T12:19:28.951Z,100031.95
2018-12-26T12:21:36.588Z,100030.86
2018-12-26T12:23:43.952Z,100040.02
2018-12-26T12:25:51.385Z,100037.27
2018-12-26T12:27:58.655Z,100036.58
2018-12-26T12:30:05.792Z,100038.11
2018-12-26T12:32:12.992Z,100036.58
2018-12-26T12:34:20.330Z,100037.19
2018-12-26T12:36:27.698Z,100044.86
2018-12-26T12:38:35.339Z,100042.50
2018-12-26T12:40:42.733Z,100044.91
2018-12-26T12:42:50.134Z,100039.59
2018-12-26T12:44:57.489Z,100050.95
2018-12-26T12:47:04.859Z,100045.23
2018-12-26T12:49:12.202Z,100044.77
2018-12-26T12:51:19.336Z,100044.02
2018-12-26T12:53:26.695Z,100046.84
2018-12-26T12:55:33.807Z,100045.45
2018-12-26T12:57:40.989Z,100051.58
2018-12-26T12:59:49.659Z,100055.52
2018-12-26T13:01:57.421Z,100055.86
2018-12-26T13:04:04.548Z,100058.81
2018-12-26T13:06:11.960Z,100060.03
2018-12-26T13:08:19.186Z,100070.02
2018-12-26T13:10:26.519Z,100071.03
2018-12-26T13:12:33.910Z,100061.29
2018-12-26T13:14:41.015Z,100062.93
2018-12-26T13:16:48.201Z,100064.86
2018-12-26T13:18:55.584Z,100065.41
2018-12-26T13:21:02.891Z,100077.18
2018-12-26T13:23:10.235Z,100079.11
2018-12-26T13:25:17.189Z,100073.47
2018-12-26T13:27:24.376Z,100078.13
2018-12-26T13:29:31.691Z,100075.77
2018-12-26T13:31:39.175Z,100076.06
2018-12-26T13:33:46.045Z,100092.93
2018-12-26T13:35:53.828Z,100089.53
2018-12-26T13:38:00.977Z,100099.03
2018-12-26T13:40:08.186Z,100100.88
2018-12-26T13:42:15.409Z,100101.39
2018-12-26T13:44:23.496Z,100106.81
2018-12-26T13:46:33.843Z,100089.94
2018-12-26T13:48:39.777Z,100085.98
2018-12-26T13:50:46.855Z,100087.13
2018-12-26T13:52:53.939Z,100093.05
2018-12-26T13:55:01.154Z,100080.50
2018-12-26T13:57:08.724Z,100083.59
2018-12-26T13:59:15.708Z,100088.33
2018-12-26T14:01:22.894Z,100093.03
2018-12-26T14:03:30.298Z,100090.87
2018-12-26T14:05:37.243Z,100093.77
2018-12-26T14:07:44.456Z,100091.20
2018-12-26T14:09:51.715Z,100093.80
2018-12-26T14:11:59.379Z,100094.42
2018-12-26T14:14:06.756Z,100094.98
2018-12-26T14:16:14.871Z,100089.24
2018-12-26T14:18:21.979Z,100099.20
2018-12-26T14:20:29.246Z,100105.89
2018-12-26T14:22:37.186Z,100096.12
2018-12-26T14:24:44.353Z,100098.71
2018-12-26T14:26:51.737Z,100103.22
2018-12-26T14:28:59.369Z,100106.97
2018-12-26T14:31:06.634Z,100099.84
2018-12-26T14:33:14.584Z,100104.05
2018-12-26T14:35:22.210Z,100103.80
2018-12-26T14:37:29.452Z,100097.52
2018-12-26T14:39:37.163Z,100099.12
2018-12-26T14:41:44.132Z,100091.36
2018-12-26T14:43:51.329Z,100088.55
2018-12-26T14:45:58.297Z,100101.51
2018-12-26T14:48:05.573Z,100101.72
2018-12-26T14:50:12.246Z,100096.58
2018-12-26T14:52:18.944Z,100100.33
2018-12-26T14:54:26.016Z,100099.48
2018-12-26T14:56:33.289Z,100092.48
2018-12-26T14:58:40.640Z,100085.52
2018-12-26T15:00:49.246Z,100086.28
2018-12-26T15:02:56.354Z,100097.42
2018-12-26T15:05:03.726Z,100099.98
2018-12-26T15:07:11.132Z,100096.59
2018-12-26T15:09:18.161Z,100100.58
2018-12-26T15:11:26.150Z,100104.22
2018-12-26T15:13:33.357Z,100110.63
2018-12-26T15:15:40.619Z,100119.33
2018-12-26T15:17:47.313Z,100127.17
2018-12-26T15:19:54.579Z,100127.34
2018-12-26T15:22:01.691Z,100131.84
2018-12-26T15:24:08.342Z,100126.94
2018-12-26T15:26:15.308Z,100126.25
2018-12-26T15:28:22.546Z,100114.89
2018-12-26T15:30:30.544Z,100117.34
2018-12-26T15:32:37.943Z,100111.01
2018-12-26T15:34:45.380Z,100115.89
2018-12-26T15:36:54.052Z,100117.51
2018-12-26T15:39:01.557Z,100113.70
2018-12-26T15:41:10.293Z,100119.34
2018-12-26T15:43:17.779Z,100120.84
2018-12-26T15:45:25.806Z,100123.77
2018-12-26T15:47:33.070Z,100121.54
2018-12-26T15:49:40.857Z,100123.03
2018-12-26T15:51:48.190Z,100133.69
2018-12-26T15:53:56.205Z,100134.65
2018-12-26T15:56:03.659Z,100136.84
2018-12-26T15:58:10.463Z,100145.19
2018-12-26T16:00:17.762Z,100142.00
2018-12-26T16:02:24.794Z,100141.12
2018-12-26T16:04:42.837Z,100147.30
2018-12-26T16:07:02.923Z,100141.43
2018-12-26T16:09:13.264Z,100151.66
2018-12-26T16:11:20.066Z,100147.77
2018-12-26T16:13:27.166Z,100147.45
2018-12-26T16:15:39.642Z,100148.09
2018-12-26T16:17:46.999Z,100144.62
2018-12-26T16:19:54.567Z,100146.81
2018-12-26T16:22:01.960Z,100131.54
2018-12-26T16:24:09.249Z,100126.94
2018-12-26T16:26:16.707Z,100126.00
2018-12-26T16:28:23.789Z,100130.05
2018-12-26T16:30:36.446Z,100128.09
2018-12-26T16:32:56.026Z,100126.86
2018-12-26T16:35:11.659Z,100120.77
2018-12-26T16:37:18.878Z,100117.86
2018-12-26T16:39:26.145Z,100113.94
2018-12-26T16:41:33.464Z,100114.92
2018-12-26T16:43:40.517Z,100107.80
2018-12-26T16:45:47.590Z,100108.06
2018-12-26T16:47:54.837Z,100105.03
2018-12-26T16:50:02.322Z,100100.02
2018-12-26T16:52:09.358Z,100099.09
2018-12-26T16:54:16.620Z,100091.47
2018-12-26T16:56:33.519Z,100091.56
2018-12-26T16:58:40.852Z,100092.97
2018-12-26T17:00:54.986Z,100086.94
2018-12-26T17:03:36.329Z,100074.21
2018-12-26T17:05:43.672Z,100076.80
2018-12-26T17:07:50.875Z,100069.08
2018-12-26T17:09:59.196Z,100065.13
2018-12-26T17:12:27.736Z,100060.05
2018-12-26T17:14:35.229Z,100051.96
2018-12-26T17:16:42.799Z,100054.47
2018-12-26T17:19:16.970Z,100053.84
2018-12-26T17:21:27.979Z,100053.89
2018-12-26T17:23:35.224Z,100052.20
2018-12-26T17:25:42.319Z,100045.56
2018-12-26T17:27:49.638Z,100038.81
2018-12-26T17:29:57.297Z,100038.46
2018-12-26T17:32:04.526Z,100030.58
2018-12-26T17:34:11.643Z,100022.19
2018-12-26T17:36:19.027Z,100019.41
2018-12-26T17:38:29.554Z,100010.42
2018-12-26T17:40:45.739Z,100014.53
2018-12-26T17:43:06.829Z,100011.78
2018-12-26T17:45:21.427Z,100001.23
2018-12-26T17:47:28.596Z,99994.52
2018-12-26T17:49:36.019Z,99996.45
2018-12-26T17:51:43.374Z,99993.31
2018-12-26T17:54:08.625Z,99995.98
2018-12-26T17:56:30.732Z,99998.48
2018-12-26T17:58:41.884Z,99989.44
2018-12-26T18:01:14.843Z,99992.72
2018-12-26T18:03:22.429Z,99982.39
2018-12-26T18:05:35.018Z,99970.48
2018-12-26T18:07:42.213Z,99973.98
2018-12-26T18:09:49.748Z,99968.55
2018-12-26T18:12:11.296Z,99969.34
2018-12-26T18:14:06.094Z,99928.01
2018-12-26T18:16:19.301Z,99968.28
2018-12-26T18:18:26.531Z,99968.14
2018-12-26T18:20:49.322Z,99969.84
2018-12-26T18:23:10.532Z,99962.92
2018-12-26T18:25:24.739Z,99955.59
2018-12-26T18:27:32.992Z,99954.30
2018-12-26T18:29:41.108Z,99952.41
2018-12-26T18:31:48.359Z,99948.36
2018-12-26T18:33:56.904Z,99943.29
2018-12-26T18:36:04.407Z,99944.70
2018-12-26T18:38:11.638Z,99937.61
2018-12-26T18:40:18.810Z,99939.08
2018-12-26T18:42:27.479Z,99934.69
2018-12-26T18:44:40.622Z,99936.30
2018-12-26T18:46:48.443Z,99927.51
2018-12-26T18:48:56.554Z,99930.88
2018-12-26T18:51:03.922Z,99922.23
2018-12-26T18:53:11.790Z,99918.80
2018-12-26T18:55:23.071Z,99919.27
2018-12-26T18:57:31.252Z,99911.50
2018-12-26T18:59:38.312Z,99909.69
2018-12-26T19:01:45.457Z,99920.01
2018-12-26T19:03:52.456Z,99910.09
2018-12-26T19:05:59.572Z,99903.27
2018-12-26T19:08:09.535Z,99905.28
2018-12-26T19:10:16.446Z,99901.53
2018-12-26T19:12:23.752Z,99903.52
2018-12-26T19:14:31.042Z,99900.08
2018-12-26T19:16:38.326Z,99897.16
2018-12-26T19:18:45.617Z,99897.48
2018-12-26T19:20:52.735Z,99901.55
2018-12-26T19:22:59.929Z,99903.36
2018-12-26T19:25:07.321Z,99894.97
2018-12-26T19:27:14.405Z,99889.17
2018-12-26T19:29:21.583Z,99892.56
2018-12-26T19:31:28.525Z,99889.76
2018-12-26T19:33:36.534Z,99889.33
2018-12-26T19:35:44.820Z,99894.08
2018-12-26T19:37:52.440Z,99890.38
2018-12-26T19:40:00.166Z,99883.48
2018-12-26T19:42:07.472Z,99883.84
2018-12-26T19:44:14.710Z,99880.46
2018-12-26T19:46:22.087Z,99884.46
2018-12-26T19:48:29.380Z,99878.95
2018-12-26T19:50:36.513Z,99867.57
2018-12-26T19:52:48.805Z,99862.27
2018-12-26T19:54:56.652Z,99861.13
2018-12-26T19:57:10.234Z,99860.38
2018-12-26T19:59:19.016Z,99862.75
2018-12-26T20:01:26.187Z,99852.08
2018-12-26T20:03:33.472Z,99850.93
2018-12-26T20:05:40.938Z,99858.72
2018-12-26T20:07:48.206Z,99858.86
2018-12-26T20:09:55.252Z,99846.88
2018-12-26T20:12:07.501Z,99839.84
2018-12-26T20:14:15.014Z,99850.90
2018-12-26T20:16:22.975Z,99852.78
2018-12-26T20:18:30.135Z,99851.69
2018-12-26T20:20:37.445Z,99852.48
2018-12-26T20:22:44.521Z,99847.53
2018-12-26T20:24:52.125Z,99850.92
2018-12-26T20:26:59.906Z,99848.67
2018-12-26T20:29:07.162Z,99848.47
2018-12-26T20:31:14.645Z,99851.38
2018-12-26T20:33:21.892Z,99846.39
2018-12-26T20:35:29.276Z,99845.03
2018-12-26T20:37:36.386Z,99848.00
2018-12-26T20:39:43.488Z,99844.62
2018-12-26T20:41:50.930Z,99847.13
2018-12-26T20:43:58.827Z,99841.81
2018-12-26T20:46:06.126Z,99843.05
2018-12-26T20:48:13.438Z,99840.38
2018-12-26T20:50:20.576Z,99837.98
2018-12-26T20:52:27.803Z,99836.32
2018-12-26T20:54:35.166Z,99838.41
2018-12-26T20:56:42.754Z,99832.02
2018-12-26T20:58:50.872Z,99833.55
2018-12-26T21:00:58.140Z,99834.36
2018-12-26T21:03:09.983Z,99831.58
2018-12-26T21:05:20.041Z,99830.86
2018-12-26T21:07:27.322Z,99832.02
2018-12-26T21:09:34.471Z,99838.16
2018-12-26T21:12:01.222Z,99832.17
2018-12-26T21:14:08.671Z,99827.77
2018-12-26T21:16:15.878Z,99824.96
2018-12-26T21:18:22.943Z,99826.73
2018-12-26T21:20:30.453Z,99829.13
2018-12-26T21:22:41.535Z,99835.36
2018-12-26T21:25:16.911Z,99829.09
2018-12-26T21:27:24.984Z,99843.91
2018-12-26T21:29:32.492Z,99825.37
2018-12-26T21:31:39.640Z,99829.79
2018-12-26T21:33:46.930Z,99829.22
2018-12-26T21:35:55.093Z,99829.66
2018-12-26T21:38:02.692Z,99829.44
2018-12-26T21:40:10.503Z,99822.56
2018-12-26T21:42:17.775Z,99818.20
2018-12-26T21:44:24.947Z,99820.02
2018-12-26T21:46:33.009Z,99822.14
2018-12-26T21:48:41.030Z,99819.43
2018-12-26T21:51:44.323Z,99807.47
2018-12-26T21:54:42.577Z,99806.00
2018-12-26T21:57:16.096Z,99808.30
2018-12-26T21:59:23.119Z,99799.18
2018-12-26T22:01:30.293Z,99797.83
2018-12-26T22:03:37.275Z,99800.20
2018-12-26T22:05:45.224Z,99755.16
2018-12-26T22:07:52.399Z,99791.16
2018-12-26T22:10:00.452Z,99786.30
2018-12-26T22:12:31.534Z,99780.87
2018-12-26T22:14:47.804Z,99773.27
2018-12-26T22:17:11.719Z,99773.81
2018-12-26T22:19:18.940Z,99765.58
2018-12-26T22:21:26.735Z,99768.54
2018-12-26T22:23:33.980Z,99768.70
2018-12-26T22:25:41.746Z,99757.44
2018-12-26T22:27:48.918Z,99753.14
2018-12-26T22:29:56.187Z,99751.39
2018-12-26T22:32:04.478Z,99746.73
2018-12-26T22:34:11.929Z,99742.84
2018-12-26T22:36:19.329Z,99746.91
2018-12-26T22:38:44.539Z,99739.78
2018-12-26T22:40:53.751Z,99742.37
2018-12-26T22:43:11.131Z,99740.00
2018-12-26T22:45:43.569Z,99747.96
2018-12-26T22:47:44.583Z,99750.01
2018-12-26T22:49:51.821Z,99757.19
2018-12-26T22:51:59.096Z,99749.95
2018-12-26T22:54:08.272Z,99750.69
2018-12-26T22:56:15.317Z,99746.98
2018-12-26T22:58:22.622Z,99741.70
2018-12-26T23:00:42.068Z,99738.58
2018-12-26T23:02:50.178Z,99741.25
2018-12-26T23:04:57.660Z,99748.58
2018-12-26T23:07:04.946Z,99750.28
2018-12-26T23:09:12.974Z,99749.83
2018-12-26T23:11:20.647Z,99754.00
2018-12-26T23:13:28.299Z,99759.24
2018-12-26T23:15:35.485Z,99767.17
2018-12-26T23:17:42.820Z,99759.45
2018-12-26T23:19:50.089Z,99769.05
2018-12-26T23:21:57.187Z,99779.49
2018-12-26T23:24:03.892Z,99734.89
2018-12-26T23:26:11.185Z,99772.30
2018-12-26T23:28:18.865Z,99773.95
2018-12-26T23:30:25.717Z,99778.85
2018-12-26T23:32:32.997Z,99783.76
2018-12-26T23:34:40.324Z,99784.50
2018-12-26T23:36:48.107Z,99781.06
2018-12-26T23:38:55.414Z,99772.92
2018-12-26T23:41:02.536Z,99764.56
2018-12-26T23:43:09.879Z,99770.81
2018-12-26T23:45:17.303Z,99768.33
2018-12-26T23:47:25.190Z,99762.14
2018-12-26T23:49:32.492Z,99740.95
2018-12-26T23:51:39.787Z,99743.13
2018-12-26T23:53:47.130Z,99740.02
2018-12-26T23:55:54.458Z,99742.05
2018-12-26T23:58:01.729Z,99740.11
